SBOSBO IBZ / LEIB
Speedbird OnlineSpeedbird Online IBZ / LEIB

Ibiza Airport
21:36 24.1°C

Location Ibiza, Spain
Latitude: 38.872898101800004
Longitude: 1.3731199502899998
Web Airport Website | Wikipedia
Altitude 7 Meter / 24 Feet
Distance 1,408 KM / 875 Miles
from London.
Time Zone UTC +2 hours (Europe/Madrid)
Codes IATA: IBZ
ICAO: LEIB
Currency £1 equals EUR 1.12
Runways
RunwayLength (m)Surface
062800Asphalt
242800Asphalt
Radio
TypeDescriptionFrequency
APPPALMA APP118.125
APPAPP119.8
ATISATIS117.8
GNDGND121.8
TWRTWR118.5
Live ATC
METAR LEIB 241900Z VRB01KT CAVOK 24/19 Q1009 NOSIG
TAF TAF LEIB 241400Z 2415/2515 22010KT 9999 FEW020 TX25/2512Z TN17/2505Z BECMG 2417/2419 34008KT PROB40 TEMPO 2422/2503 4000 SHRA FEW025TCU BECMG 2423/2501 03012KT TEMPO 2503/2515 3000 TSRA SCT020CB PROB40 TEMPO 2503/2515 1500 +TSRAGR BKN010 SCT015CB
Weather As Of 24 Sep 2022 21:36
Description Clear sky
Wind 2 km/h from North (0°)
Cloud Cover 0%
Precipitation Rain: none, Snow: none
Sunrise 07:43
Sunset 19:49
Lounges SALA VIP Cap des Falco , Main Terminal
Rotations During the last 90 days there were
212 flights from LCY
207 flights from LHR
82 flights from LGW
11 flights from SOU
215 flights to LCY
209 flights to LHR
91 flights to LGW
12 flights to SOU


© 2017-2022 Speedbird Online